METAR Data
IDs: Format: Raw Decoded Include TAF

Data at: 1412 UTC 14 Dec 2019

PATO 141353Z AUTO VRB06KT 5SM -RA BR OVC016 01/01 A2965 RMK AO2 SLP043 P0014 T00110006 TSNO
PATO 141335Z AUTO 13008G16KT 3SM RA BR OVC014 01/01 A2966 RMK AO2 P0011 T00110006 TSNO
PATO 141253Z AUTO 14010G16KT 5SM -RA BR OVC015 01/01 A2965 RMK AO2 SLP040 P0014 T00110006 TSNO
PATO 141246Z AUTO 14008KT 4SM -RA BR OVC015 01/01 A2965 RMK AO2 P0013 T00110006 TSNO
PATO 141230Z AUTO 15010G18KT 120V180 3SM +RA BR OVC013 01/00 A2965 RMK AO2 P0010 T00060000 TSNO
PATO 141153Z AUTO 14008G20KT 7SM -RA OVC023 02/01 A2963 RMK AO2 SLP034 P0004 60020 70145 T00170006 10056 20011 51003 TSNO
PATO 141053Z AUTO 14007KT 100V160 5SM -RA BR OVC020 01/01 A2963 RMK AO2 SLP034 P0002 T00110006 TSNO
PATO 140953Z AUTO 15006KT 6SM -RA BR OVC023 02/01 A2963 RMK AO2 SLP033 P0003 T00170011 TSNO
PATO 140853Z AUTO 12011G20KT 090V160 5SM RA BR OVC019 02/01 A2962 RMK AO2 SLP032 P0006 60011 T00220006 400670022 52017 TSNO
PATO 140810Z AUTO VRB06KT 6SM -RA BR OVC016 02/01 A2961 RMK AO2 P0001 T00220011 TSNO
PATO 140753Z AUTO VRB05KT 4SM RA BR OVC014 02/01 A2961 RMK AO2 RAB0655 SLP027 P0005 T00220011 TSNO
PATO 140727Z AUTO 14009G17KT 9SM -RA OVC026 03/00 A2960 RMK AO2 RAB0655 P0000 T00330000 TSNO
PATO 140653Z AUTO 11011G18KT 10SM FEW046 OVC055 05/M02 A2958 RMK AO2 SLP019 T00501017 TSNO
PATO 140553Z AUTO 14007KT 10SM BKN080 BKN095 04/M01 A2957 RMK AO2 SLP014 60000 T00441011 10067 20044 55003 TSNO
PATO 140453Z AUTO 12006KT 10SM BKN075 06/M03 A2957 RMK AO2 SLP014 T00561033 TSNO
PATO 140353Z AUTO 12008G14KT 10SM SCT060 OVC070 06/M03 A2958 RMK AO2 SLP017 T00611033 TSNO
PATO 140253Z AUTO 10SM OVC070 05/M02 A2958 RMK AO2 SLP018 60000 T00501022 58006 TSNO
PATO 140153Z AUTO 12011G20KT 060V140 10SM FEW050 BKN065 OVC080 06/M03 A2959 RMK AO2 PK WND 12029/0059 SLP021 T00611033 TSNO
PATO 140053Z AUTO 11007G23KT 090V150 10SM BKN055 OVC070 06/M03 A2961 RMK AO2 PK WND 11037/0008 RAE08 SLP026 P0000 T00611028 TSNO
PATO 132353Z AUTO 09012G39KT 030V160 10SM -RA BKN041 OVC050 06/M02 A2960 RMK AO2 PK WND 12039/2351 RAB27 SLP024 P0000 60022 T00561017 10061 20044 51021 TSNO
PATO 132253Z AUTO 12010G36KT 100V160 10SM BKN034 OVC044 06/00 A2959 RMK AO2 PK WND 15052/2223 RAB08E20 SLP021 P0000 T00560000 TSNO
PATO 132200Z AUTO 13016G37KT 090V160 10SM BKN030 BKN036 OVC048 06/00 A2957 RMK AO2 PK WND 13037/2200 T00560000 TSNO
PATO 132153Z AUTO 06016G37KT 030V100 10SM BKN028 BKN033 OVC046 06/00 A2957 RMK AO2 PK WND 08059/2134 RAE36 SLP013 P0000 T00560000 TSNO
PATO 132053Z AUTO 10016G47KT 060V240 3SM -RA BKN025 OVC030 04/01 A2954 RMK AO2 PK WND 11056/2025 SLP003 P0004 60022 T00440011 50012 TSNO
PATO 132043Z AUTO 11025G50KT 070V170 1 3/4SM -RA OVC028 04/01 A2954 RMK AO2 PK WND 11056/2025 P0003 T00440011 TSNO
PATO 132028Z AUTO 10022G56KT 070V140 6SM -RA OVC028 05/01 A2954 RMK AO2 PK WND 11056/2025 P0002 T00500011 TSNO
PATO 132009Z AUTO 12024G47KT 070V170 2 1/2SM -RA BKN028 OVC033 04/01 A2952 RMK AO2 PK WND 11052/1954 VIS 2V4 P0001 T00440011 TSNO
PATO 131953Z AUTO 13020G51KT 100V180 10SM -RA SCT025 BKN032 OVC042 05/01 A2950 RMK AO2 PK WND 12056/1923 SLP992 P0001 T00500011 TSNO
PATO 131853Z AUTO 09027G51KT 060V130 3SM -RA BKN023 OVC030 05/02 A2950 RMK AO2 PK WND 11051/1848 SLP990 P0017 T00500017 TSNO
PATO 131842Z AUTO 12020G41KT 2 1/2SM RA BKN023 OVC028 05/02 A2948 RMK AO2 PK WND 10045/1839 P0015 T00500017 TSNO
PATO 131824Z AUTO 12017G42KT 4SM RA BKN020 OVC027 05/02 A2947 RMK AO2 PK WND 11045/1809 P0011 T00500017 TSNO
PATO 131809Z AUTO 13019G45KT 2 1/2SM RA OVC018 04/02 A2948 RMK AO2 PK WND 11045/1809 VIS 2V4 P0007 T00440017 TSNO
PATO 131801Z AUTO 10020G43KT 070V130 1 3/4SM RA BR OVC020 04/02 A2946 RMK AO2 PK WND 12043/1801 P0004 T00390017 TSNO
PATO 131753Z AUTO 10018G53KT 060V150 2 1/2SM RA BKN020 OVC027 04/02 A2947 RMK AO2 PK WND 11059/1731 PRESRR SLP980 P0023 60103 T00440017 10061 20044 52028 TSNO
PATO 131703Z AUTO 13021G43KT 100V180 2SM RA BKN020 OVC029 04/02 A2944 RMK AO2 PK WND 13043/1700 P0003 T00440017 TSNO
PATO 131650Z AUTO 10019G51KT 030V120 3SM -RA BKN024 OVC032 06/02 A2943 RMK AO2 PK WND 09055/1620 P0007 TSNO
PATO 131643Z AUTO 10024G51KT 2 1/2SM RA BKN026 OVC032 05/02 A2943 RMK AO2 PK WND 09055/1620 P0007 T00500017 TSNO
PATO 131626Z AUTO 10014G55KT 070V140 6SM -RA FEW028 OVC033 05/02 A2942 RMK AO2 PK WND 09055/1620 PRESRR P0004 T00500017 TSNO
PATO 131553Z AUTO 07020G50KT 040V140 3SM RA BKN025 OVC034 06/02 A2939 RMK AO2 PK WND 11060/1527 SLP952 P0014 T00560022 TSNO
PATO 131516Z AUTO 08019G42KT 020V110 3SM -RA BKN026 OVC033 06/02 A2940 RMK AO2 PK WND 06057/1513 P0006 T00560022 TSNO
PATO 131453Z AUTO 10016G49KT 2 1/2SM RA BKN026 OVC031 06/02 A2939 RMK AO2 PK WND 10049/1448 PRESRR SLP951 P0021 60058 T00560022 51038 TSNO
PATO 131401Z AUTO 10015G37KT 2 1/2SM RA BKN021 OVC029 05/02 A2935 RMK AO2 PK WND 11037/1358 P0003 T00500022 TSNO
PATO 131353Z AUTO 12017G32KT 090V150 3SM RA BKN021 OVC029 05/02 A2935 RMK AO2 PK WND 12040/1338 SLP939 P0018 T00500017 TSNO
PATO 131344Z AUTO 11013G40KT 080V160 2 1/2SM RA BR BKN021 OVC029 04/02 A2935 RMK AO2 PK WND 12040/1338 P0016 T00440022 TSNO
PATO 131253Z AUTO 13011G26KT 110V170 3SM RA BR BKN021 OVC027 04/02 A2932 RMK AO2 PK WND 11034/1154 SLP929 P0019 T00440022 TSNO
PATO 131234Z AUTO 13012G33KT 100V170 3SM RA OVC021 05/02 A2932 RMK AO2 PK WND 11034/1154 P0014 T00500022 TSNO
PATO 131207Z AUTO 12010G27KT 100V170 2 1/2SM RA BR OVC024 05/03 A2929 RMK AO2 PK WND 11034/1154 PRESRR P0005 T00500028 TSNO
PATO 131153Z AUTO 14014G29KT 4SM RA BR BKN028 OVC032 05/03 A2927 RMK AO2 PK WND 12036/1104 SLP913 P0007 60037 7//// T00500033 10067 20044 53012 TSNO
PATO 131100Z AUTO 13008G31KT 4SM -RA BR FEW020 BKN026 OVC032 05/03 A2925 RMK AO2 PK WND 08031/1056 P0001 T00500028 TSNO
PATO 131053Z AUTO 11009G36KT 070V140 5SM -RA FEW022 OVC030 06/02 A2925 RMK AO2 PK WND 10045/1039 SLP905 P0001 T00560022 TSNO
PATO 130953Z AUTO VRB06G20KT 9SM -RA OVC031 06/03 A2924 RMK AO2 PK WND 12030/0936 RAB02 SLP902 P0002 T00560028 TSNO
PATO 130853Z AUTO 14016G32KT 070V190 10SM SCT026 OVC032 07/02 A2924 RMK AO2 PK WND 05034/0835 RAE48 SLP901 P0000 60027 T00670022 400720050 50010 TSNO
PATO 130753Z AUTO 11019G35KT 5SM -RA BKN025 OVC029 06/02 A2925 RMK AO2 PK WND 10035/0747 SLP906 P0013 T00610022 TSNO
PATO 130653Z AUTO 11019G38KT 3SM RA OVC024 06/02 A2925 RMK AO2 PK WND 11038/0653 SLP905 P0014 T00560022 TSNO
PATO 130618Z AUTO 13012G22KT 4SM RA BR OVC028 06/03 A2923 RMK AO2 P0005 T00560033 TSNO
PATO 130553Z AUTO 14011G22KT 5SM -RA BR OVC031 06/03 A2921 RMK AO2 PK WND 09029/0535 RAB09 SLP891 P0005 60012 T00560033 10072 20050 55006 TSNO
PATO 130453Z AUTO 11009G25KT 080V140 10SM BKN036 BKN055 OVC080 07/03 A2920 RMK AO2 PK WND 09032/0443 RAE47 SLP890 P0000 T00670028 TSNO
PATO 130420Z AUTO 13010G23KT 100V160 10SM -RA FEW026 BKN038 OVC065 07/03 A2922 RMK AO2 P0000 T00670028 TSNO
PATO 130412Z AUTO 12008G22KT 7SM -RA FEW019 BKN029 OVC060 06/04 A2922 RMK AO2 P0000 T00560039 TSNO
PATO 130353Z AUTO 4SM -RA BR FEW015 OVC039 06/03 A2923 RMK AO2 SLP898 P0003 T00560033 TSNO
PATO 130253Z AUTO 8SM -RA BKN033 OVC046 05/04 A2923 RMK AO2 SLP898 P0001 60004 T00500039 58005 TSNO